sensor_id;sensor_type;location;lat;lon;timestamp;temperature;humidity
254;DHT22;590;48.772;8.846;2024-01-11T00:01:49;-4.40;92.10
254;DHT22;590;48.772;8.846;2024-01-11T00:04:17;-4.40;92.00
254;DHT22;590;48.772;8.846;2024-01-11T00:06:46;-4.40;91.70
254;DHT22;590;48.772;8.846;2024-01-11T00:09:14;-4.40;91.40
254;DHT22;590;48.772;8.846;2024-01-11T00:11:42;-4.40;91.20
254;DHT22;590;48.772;8.846;2024-01-11T00:14:10;-4.50;90.90
254;DHT22;590;48.772;8.846;2024-01-11T00:16:38;-4.70;90.80
254;DHT22;590;48.772;8.846;2024-01-11T00:19:07;-4.80;91.40
254;DHT22;590;48.772;8.846;2024-01-11T00:21:35;-4.70;92.30
254;DHT22;590;48.772;8.846;2024-01-11T00:24:08;-4.70;92.60
254;DHT22;590;48.772;8.846;2024-01-11T00:26:36;-4.80;92.40
254;DHT22;590;48.772;8.846;2024-01-11T00:29:05;-4.80;92.60
254;DHT22;590;48.772;8.846;2024-01-11T00:31:33;-4.70;92.90
254;DHT22;590;48.772;8.846;2024-01-11T00:34:02;-4.70;92.60
254;DHT22;590;48.772;8.846;2024-01-11T00:36:30;-4.60;92.40
254;DHT22;590;48.772;8.846;2024-01-11T00:38:59;-4.60;92.30
254;DHT22;590;48.772;8.846;2024-01-11T00:41:29;-4.60;92.20
254;DHT22;590;48.772;8.846;2024-01-11T00:43:57;-4.70;92.00
254;DHT22;590;48.772;8.846;2024-01-11T00:46:25;-4.70;91.90
254;DHT22;590;48.772;8.846;2024-01-11T00:48:53;-4.80;91.90
254;DHT22;590;48.772;8.846;2024-01-11T00:51:23;-4.80;91.90
254;DHT22;590;48.772;8.846;2024-01-11T00:53:51;-4.90;92.00
254;DHT22;590;48.772;8.846;2024-01-11T00:56:19;-4.90;92.00
254;DHT22;590;48.772;8.846;2024-01-11T00:58:48;-5.00;92.50
254;DHT22;590;48.772;8.846;2024-01-11T01:01:17;-5.00;92.60
254;DHT22;590;48.772;8.846;2024-01-11T01:03:45;-5.00;93.10
254;DHT22;590;48.772;8.846;2024-01-11T01:06:13;-5.00;93.50
254;DHT22;590;48.772;8.846;2024-01-11T01:08:41;-4.90;93.60
254;DHT22;590;48.772;8.846;2024-01-11T01:11:09;-4.90;93.30
254;DHT22;590;48.772;8.846;2024-01-11T01:13:37;-5.00;92.60
254;DHT22;590;48.772;8.846;2024-01-11T01:16:06;-5.00;92.60
254;DHT22;590;48.772;8.846;2024-01-11T01:18:35;-5.10;92.60
254;DHT22;590;48.772;8.846;2024-01-11T01:21:03;-5.10;92.40
254;DHT22;590;48.772;8.846;2024-01-11T01:23:33;-5.10;92.90
254;DHT22;590;48.772;8.846;2024-01-11T01:26:02;-5.00;93.20
254;DHT22;590;48.772;8.846;2024-01-11T01:28:33;-5.00;92.90
254;DHT22;590;48.772;8.846;2024-01-11T01:31:01;-5.00;92.80
254;DHT22;590;48.772;8.846;2024-01-11T01:33:30;-5.00;92.80
254;DHT22;590;48.772;8.846;2024-01-11T01:35:58;-5.00;92.80
254;DHT22;590;48.772;8.846;2024-01-11T01:38:27;-5.00;92.50
254;DHT22;590;48.772;8.846;2024-01-11T01:40:57;-5.00;92.50
254;DHT22;590;48.772;8.846;2024-01-11T01:43:25;-5.10;92.50
254;DHT22;590;48.772;8.846;2024-01-11T01:45:54;-5.10;92.30
254;DHT22;590;48.772;8.846;2024-01-11T01:48:22;-5.20;92.40
254;DHT22;590;48.772;8.846;2024-01-11T01:50:51;-5.30;92.40
254;DHT22;590;48.772;8.846;2024-01-11T01:53:22;-5.30;92.50
254;DHT22;590;48.772;8.846;2024-01-11T01:55:51;-5.30;92.90
254;DHT22;590;48.772;8.846;2024-01-11T01:58:20;-5.20;93.50
254;DHT22;590;48.772;8.846;2024-01-11T02:00:50;-5.10;93.60
254;DHT22;590;48.772;8.846;2024-01-11T02:03:19;-5.10;93.30
254;DHT22;590;48.772;8.846;2024-01-11T02:05:47;-5.20;93.30
254;DHT22;590;48.772;8.846;2024-01-11T02:08:18;-5.20;93.80
254;DHT22;590;48.772;8.846;2024-01-11T02:10:48;-5.10;93.60
254;DHT22;590;48.772;8.846;2024-01-11T02:13:16;-5.10;93.50
254;DHT22;590;48.772;8.846;2024-01-11T02:15:45;-5.00;93.10
254;DHT22;590;48.772;8.846;2024-01-11T02:18:13;-5.00;93.00
254;DHT22;590;48.772;8.846;2024-01-11T02:20:42;-5.00;93.00
254;DHT22;590;48.772;8.846;2024-01-11T02:23:14;-5.00;93.00
254;DHT22;590;48.772;8.846;2024-01-11T02:25:44;-5.00;92.90
254;DHT22;590;48.772;8.846;2024-01-11T02:28:12;-5.00;92.70
254;DHT22;590;48.772;8.846;2024-01-11T02:30:40;-5.00;92.30
254;DHT22;590;48.772;8.846;2024-01-11T02:33:09;-5.10;92.10
254;DHT22;590;48.772;8.846;2024-01-11T02:35:43;-5.20;92.20
254;DHT22;590;48.772;8.846;2024-01-11T02:38:14;-5.30;92.60
254;DHT22;590;48.772;8.846;2024-01-11T02:40:44;-5.30;92.70
254;DHT22;590;48.772;8.846;2024-01-11T02:43:13;-5.30;92.90
254;DHT22;590;48.772;8.846;2024-01-11T02:45:41;-5.30;93.00
254;DHT22;590;48.772;8.846;2024-01-11T02:48:09;-5.30;93.10
254;DHT22;590;48.772;8.846;2024-01-11T02:50:37;-5.40;93.00
254;DHT22;590;48.772;8.846;2024-01-11T02:53:05;-5.40;93.10
254;DHT22;590;48.772;8.846;2024-01-11T02:55:33;-5.40;93.40
254;DHT22;590;48.772;8.846;2024-01-11T02:58:03;-5.40;93.60
254;DHT22;590;48.772;8.846;2024-01-11T03:00:31;-5.30;93.80
254;DHT22;590;48.772;8.846;2024-01-11T03:02:59;-5.30;93.60
254;DHT22;590;48.772;8.846;2024-01-11T03:05:27;-5.30;93.20
254;DHT22;590;48.772;8.846;2024-01-11T03:07:55;-5.20;93.20
254;DHT22;590;48.772;8.846;2024-01-11T03:10:23;-5.10;92.90
254;DHT22;590;48.772;8.846;2024-01-11T03:12:51;-5.20;92.40
254;DHT22;590;48.772;8.846;2024-01-11T03:15:21;-5.20;92.30
254;DHT22;590;48.772;8.846;2024-01-11T03:17:49;-5.30;92.20
254;DHT22;590;48.772;8.846;2024-01-11T03:20:17;-5.30;92.20
254;DHT22;590;48.772;8.846;2024-01-11T03:22:48;-5.30;92.40
254;DHT22;590;48.772;8.846;2024-01-11T03:25:16;-5.40;92.30
254;DHT22;590;48.772;8.846;2024-01-11T03:27:44;-5.40;92.30
254;DHT22;590;48.772;8.846;2024-01-11T03:30:13;-5.40;92.40
254;DHT22;590;48.772;8.846;2024-01-11T03:32:44;-5.40;92.60
254;DHT22;590;48.772;8.846;2024-01-11T03:35:13;-5.40;92.10
254;DHT22;590;48.772;8.846;2024-01-11T03:37:41;-5.50;91.80
254;DHT22;590;48.772;8.846;2024-01-11T03:40:09;-5.50;92.00
254;DHT22;590;48.772;8.846;2024-01-11T03:42:38;-5.60;91.90
254;DHT22;590;48.772;8.846;2024-01-11T03:45:06;-5.70;92.50
254;DHT22;590;48.772;8.846;2024-01-11T03:47:34;-5.60;93.00
254;DHT22;590;48.772;8.846;2024-01-11T03:50:05;-5.60;93.30
254;DHT22;590;48.772;8.846;2024-01-11T03:52:33;-5.50;93.40
254;DHT22;590;48.772;8.846;2024-01-11T03:55:01;-5.40;93.30
254;DHT22;590;48.772;8.846;2024-01-11T03:57:30;-5.40;92.70
254;DHT22;590;48.772;8.846;2024-01-11T03:59:58;-5.40;92.10
254;DHT22;590;48.772;8.846;2024-01-11T04:02:26;-5.40;92.00
254;DHT22;590;48.772;8.846;2024-01-11T04:04:54;-5.40;92.00
254;DHT22;590;48.772;8.846;2024-01-11T04:07:24;-5.40;92.00
254;DHT22;590;48.772;8.846;2024-01-11T04:09:52;-5.40;91.80
254;DHT22;590;48.772;8.846;2024-01-11T04:12:20;-5.50;91.60
254;DHT22;590;48.772;8.846;2024-01-11T04:14:48;-5.60;91.40
254;DHT22;590;48.772;8.846;2024-01-11T04:17:16;-5.70;91.70
254;DHT22;590;48.772;8.846;2024-01-11T04:19:44;-5.70;92.10
254;DHT22;590;48.772;8.846;2024-01-11T04:22:12;-5.60;92.40
254;DHT22;590;48.772;8.846;2024-01-11T04:24:42;-5.50;92.30
254;DHT22;590;48.772;8.846;2024-01-11T04:27:11;-5.50;91.90
254;DHT22;590;48.772;8.846;2024-01-11T04:29:39;-5.60;91.50
254;DHT22;590;48.772;8.846;2024-01-11T04:32:07;-5.70;91.40
254;DHT22;590;48.772;8.846;2024-01-11T04:34:36;-5.80;91.30
254;DHT22;590;48.772;8.846;2024-01-11T04:37:04;-5.70;92.00
254;DHT22;590;48.772;8.846;2024-01-11T04:39:32;-5.60;92.20
254;DHT22;590;48.772;8.846;2024-01-11T04:42:02;-5.60;92.20
254;DHT22;590;48.772;8.846;2024-01-11T04:44:30;-5.60;92.20
254;DHT22;590;48.772;8.846;2024-01-11T04:46:59;-5.60;92.00
254;DHT22;590;48.772;8.846;2024-01-11T04:49:27;-5.70;91.70
254;DHT22;590;48.772;8.846;2024-01-11T04:51:55;-5.80;91.60
254;DHT22;590;48.772;8.846;2024-01-11T04:54:24;-5.80;91.70
254;DHT22;590;48.772;8.846;2024-01-11T04:56:52;-5.90;91.70
254;DHT22;590;48.772;8.846;2024-01-11T04:59:21;-5.90;91.80
254;DHT22;590;48.772;8.846;2024-01-11T05:01:49;-5.90;91.90
254;DHT22;590;48.772;8.846;2024-01-11T05:04:17;-5.90;92.20
254;DHT22;590;48.772;8.846;2024-01-11T05:06:45;-6.00;92.60
254;DHT22;590;48.772;8.846;2024-01-11T05:09:13;-6.00;93.00
254;DHT22;590;48.772;8.846;2024-01-11T05:11:42;-5.80;93.40
254;DHT22;590;48.772;8.846;2024-01-11T05:14:10;-5.80;93.10
254;DHT22;590;48.772;8.846;2024-01-11T05:16:39;-5.70;92.60
254;DHT22;590;48.772;8.846;2024-01-11T05:19:08;-5.70;92.20
254;DHT22;590;48.772;8.846;2024-01-11T05:21:36;-5.70;91.90
254;DHT22;590;48.772;8.846;2024-01-11T05:24:04;-5.80;91.70
254;DHT22;590;48.772;8.846;2024-01-11T05:26:36;-5.80;91.70
254;DHT22;590;48.772;8.846;2024-01-11T05:29:05;-5.80;92.20
254;DHT22;590;48.772;8.846;2024-01-11T05:31:33;-5.80;92.30
254;DHT22;590;48.772;8.846;2024-01-11T05:34:02;-5.80;92.30
254;DHT22;590;48.772;8.846;2024-01-11T05:36:31;-5.80;92.10
254;DHT22;590;48.772;8.846;2024-01-11T05:38:59;-5.70;92.00
254;DHT22;590;48.772;8.846;2024-01-11T05:41:27;-5.70;92.20
254;DHT22;590;48.772;8.846;2024-01-11T05:43:55;-5.70;91.70
254;DHT22;590;48.772;8.846;2024-01-11T05:46:23;-5.80;91.40
254;DHT22;590;48.772;8.846;2024-01-11T05:48:51;-5.90;91.10
254;DHT22;590;48.772;8.846;2024-01-11T05:51:21;-5.90;91.00
254;DHT22;590;48.772;8.846;2024-01-11T05:53:48;-6.00;91.40
254;DHT22;590;48.772;8.846;2024-01-11T05:56:18;-6.00;91.80
254;DHT22;590;48.772;8.846;2024-01-11T05:58:46;-6.00;91.90
254;DHT22;590;48.772;8.846;2024-01-11T06:01:15;-6.00;92.10
254;DHT22;590;48.772;8.846;2024-01-11T06:03:43;-6.10;92.20
254;DHT22;590;48.772;8.846;2024-01-11T06:06:11;-6.10;92.30
254;DHT22;590;48.772;8.846;2024-01-11T06:08:40;-6.10;92.60
254;DHT22;590;48.772;8.846;2024-01-11T06:11:10;-6.10;92.90
254;DHT22;590;48.772;8.846;2024-01-11T06:13:40;-6.10;93.00
254;DHT22;590;48.772;8.846;2024-01-11T06:16:08;-6.10;93.30
254;DHT22;590;48.772;8.846;2024-01-11T06:18:39;-6.00;93.40
254;DHT22;590;48.772;8.846;2024-01-11T06:21:07;-5.80;93.00
254;DHT22;590;48.772;8.846;2024-01-11T06:23:35;-5.80;92.70
254;DHT22;590;48.772;8.846;2024-01-11T06:26:05;-5.80;92.40
254;DHT22;590;48.772;8.846;2024-01-11T06:28:33;-5.80;92.20
254;DHT22;590;48.772;8.846;2024-01-11T06:31:02;-5.80;91.80
254;DHT22;590;48.772;8.846;2024-01-11T06:33:31;-5.80;91.70
254;DHT22;590;48.772;8.846;2024-01-11T06:35:59;-5.80;91.80
254;DHT22;590;48.772;8.846;2024-01-11T06:38:27;-5.90;91.70
254;DHT22;590;48.772;8.846;2024-01-11T06:40:56;-5.90;91.90
254;DHT22;590;48.772;8.846;2024-01-11T06:43:25;-5.90;91.90
254;DHT22;590;48.772;8.846;2024-01-11T06:45:54;-5.90;91.90
254;DHT22;590;48.772;8.846;2024-01-11T06:48:22;-5.90;91.70
254;DHT22;590;48.772;8.846;2024-01-11T06:50:50;-5.90;91.70
254;DHT22;590;48.772;8.846;2024-01-11T06:53:18;-5.90;91.70
254;DHT22;590;48.772;8.846;2024-01-11T06:55:46;-6.00;91.30
254;DHT22;590;48.772;8.846;2024-01-11T06:58:16;-6.00;91.60
254;DHT22;590;48.772;8.846;2024-01-11T07:00:45;-6.00;91.60
254;DHT22;590;48.772;8.846;2024-01-11T07:03:13;-6.10;91.60
254;DHT22;590;48.772;8.846;2024-01-11T07:05:41;-6.10;91.60
254;DHT22;590;48.772;8.846;2024-01-11T07:08:09;-6.20;91.60
254;DHT22;590;48.772;8.846;2024-01-11T07:10:37;-6.10;92.10
254;DHT22;590;48.772;8.846;2024-01-11T07:13:05;-6.10;92.50
254;DHT22;590;48.772;8.846;2024-01-11T07:15:33;-6.10;92.30
254;DHT22;590;48.772;8.846;2024-01-11T07:18:03;-6.00;92.40
254;DHT22;590;48.772;8.846;2024-01-11T07:20:32;-6.10;91.90
254;DHT22;590;48.772;8.846;2024-01-11T07:23:00;-6.10;91.70
254;DHT22;590;48.772;8.846;2024-01-11T07:25:28;-6.10;92.10
254;DHT22;590;48.772;8.846;2024-01-11T07:27:57;-6.00;92.20
254;DHT22;590;48.772;8.846;2024-01-11T07:30:25;-5.90;92.10
254;DHT22;590;48.772;8.846;2024-01-11T07:32:53;-5.90;91.90
254;DHT22;590;48.772;8.846;2024-01-11T07:35:23;-5.80;91.70
254;DHT22;590;48.772;8.846;2024-01-11T07:37:51;-5.80;91.50
254;DHT22;590;48.772;8.846;2024-01-11T07:40:19;-5.80;91.20
254;DHT22;590;48.772;8.846;2024-01-11T07:42:47;-5.90;91.20
254;DHT22;590;48.772;8.846;2024-01-11T07:45:16;-5.90;91.00
254;DHT22;590;48.772;8.846;2024-01-11T07:47:45;-6.00;91.10
254;DHT22;590;48.772;8.846;2024-01-11T07:50:14;-6.00;91.30
254;DHT22;590;48.772;8.846;2024-01-11T07:52:43;-6.00;91.50
254;DHT22;590;48.772;8.846;2024-01-11T07:55:12;-6.00;91.60
254;DHT22;590;48.772;8.846;2024-01-11T07:57:40;-6.00;91.60
254;DHT22;590;48.772;8.846;2024-01-11T08:00:09;-5.90;91.90
254;DHT22;590;48.772;8.846;2024-01-11T08:02:37;-5.90;92.30
254;DHT22;590;48.772;8.846;2024-01-11T08:05:06;-5.80;92.70
254;DHT22;590;48.772;8.846;2024-01-11T08:07:35;-5.70;93.00
254;DHT22;590;48.772;8.846;2024-01-11T08:10:05;-5.70;92.60
254;DHT22;590;48.772;8.846;2024-01-11T08:12:34;-5.60;92.30
254;DHT22;590;48.772;8.846;2024-01-11T08:15:02;-5.50;92.40
254;DHT22;590;48.772;8.846;2024-01-11T08:17:30;-5.50;92.30
254;DHT22;590;48.772;8.846;2024-01-11T08:19:58;-5.40;92.40
254;DHT22;590;48.772;8.846;2024-01-11T08:22:26;-5.30;92.50
254;DHT22;590;48.772;8.846;2024-01-11T08:25:00;-5.20;92.20
254;DHT22;590;48.772;8.846;2024-01-11T08:27:30;-5.10;92.10
254;DHT22;590;48.772;8.846;2024-01-11T08:29:58;-5.00;91.90
254;DHT22;590;48.772;8.846;2024-01-11T08:32:27;-5.00;91.90
254;DHT22;590;48.772;8.846;2024-01-11T08:34:58;-4.90;91.90
254;DHT22;590;48.772;8.846;2024-01-11T08:37:27;-4.80;92.00
254;DHT22;590;48.772;8.846;2024-01-11T08:39:55;-4.70;92.10
254;DHT22;590;48.772;8.846;2024-01-11T08:42:23;-4.60;91.90
254;DHT22;590;48.772;8.846;2024-01-11T08:44:52;-4.60;92.10
254;DHT22;590;48.772;8.846;2024-01-11T08:47:22;-4.50;92.10
254;DHT22;590;48.772;8.846;2024-01-11T08:49:50;-4.40;92.20
254;DHT22;590;48.772;8.846;2024-01-11T08:52:18;-4.40;92.00
254;DHT22;590;48.772;8.846;2024-01-11T08:54:46;-4.30;92.00
254;DHT22;590;48.772;8.846;2024-01-11T08:57:16;-4.20;92.10
254;DHT22;590;48.772;8.846;2024-01-11T08:59:44;-4.20;92.30
254;DHT22;590;48.772;8.846;2024-01-11T09:02:13;-4.10;92.40
254;DHT22;590;48.772;8.846;2024-01-11T09:04:46;-4.00;92.30
254;DHT22;590;48.772;8.846;2024-01-11T09:07:15;-3.90;92.30
254;DHT22;590;48.772;8.846;2024-01-11T09:09:43;-3.90;92.30
254;DHT22;590;48.772;8.846;2024-01-11T09:12:22;-3.70;92.50
254;DHT22;590;48.772;8.846;2024-01-11T09:14:50;-3.60;92.70
254;DHT22;590;48.772;8.846;2024-01-11T09:17:20;-3.50;92.50
254;DHT22;590;48.772;8.846;2024-01-11T09:19:48;-3.30;92.30
254;DHT22;590;48.772;8.846;2024-01-11T09:22:16;-3.30;92.00
254;DHT22;590;48.772;8.846;2024-01-11T09:24:45;-3.20;92.20
254;DHT22;590;48.772;8.846;2024-01-11T09:27:13;-3.10;92.30
254;DHT22;590;48.772;8.846;2024-01-11T09:29:42;-3.00;92.00
254;DHT22;590;48.772;8.846;2024-01-11T09:32:12;-2.80;91.80
254;DHT22;590;48.772;8.846;2024-01-11T09:34:42;-2.70;91.40
254;DHT22;590;48.772;8.846;2024-01-11T09:37:12;-2.60;91.00
254;DHT22;590;48.772;8.846;2024-01-11T09:39:40;-2.50;90.90
254;DHT22;590;48.772;8.846;2024-01-11T09:42:09;-2.40;91.00
254;DHT22;590;48.772;8.846;2024-01-11T09:44:38;-2.30;90.60
254;DHT22;590;48.772;8.846;2024-01-11T09:47:08;-2.20;90.20
254;DHT22;590;48.772;8.846;2024-01-11T09:49:44;-2.10;90.00
254;DHT22;590;48.772;8.846;2024-01-11T09:52:13;-2.00;89.70
254;DHT22;590;48.772;8.846;2024-01-11T09:54:44;-2.00;88.70
254;DHT22;590;48.772;8.846;2024-01-11T09:57:12;-1.90;88.50
254;DHT22;590;48.772;8.846;2024-01-11T09:59:42;-1.90;87.20
254;DHT22;590;48.772;8.846;2024-01-11T10:02:11;-1.80;87.30
254;DHT22;590;48.772;8.846;2024-01-11T10:04:43;-1.70;87.10
254;DHT22;590;48.772;8.846;2024-01-11T10:07:12;-1.60;87.00
254;DHT22;590;48.772;8.846;2024-01-11T10:09:42;-1.50;86.30
254;DHT22;590;48.772;8.846;2024-01-11T10:12:10;-1.40;84.90
254;DHT22;590;48.772;8.846;2024-01-11T10:14:38;-1.30;84.70
254;DHT22;590;48.772;8.846;2024-01-11T10:17:06;-1.30;84.10
254;DHT22;590;48.772;8.846;2024-01-11T10:19:38;-1.20;84.70
254;DHT22;590;48.772;8.846;2024-01-11T10:22:08;-1.10;84.10
254;DHT22;590;48.772;8.846;2024-01-11T10:24:39;-1.10;82.90
254;DHT22;590;48.772;8.846;2024-01-11T10:27:09;-1.00;82.00
254;DHT22;590;48.772;8.846;2024-01-11T10:29:37;-1.00;80.70
254;DHT22;590;48.772;8.846;2024-01-11T10:32:06;-1.00;80.30
254;DHT22;590;48.772;8.846;2024-01-11T10:34:34;-0.90;80.10
254;DHT22;590;48.772;8.846;2024-01-11T10:37:04;-0.90;79.80
254;DHT22;590;48.772;8.846;2024-01-11T10:39:35;-0.70;79.70
254;DHT22;590;48.772;8.846;2024-01-11T10:42:05;-0.70;78.30
254;DHT22;590;48.772;8.846;2024-01-11T10:44:34;-0.70;78.60
254;DHT22;590;48.772;8.846;2024-01-11T10:47:04;-0.60;78.70
254;DHT22;590;48.772;8.846;2024-01-11T10:49:37;-0.60;78.10
254;DHT22;590;48.772;8.846;2024-01-11T10:52:08;-0.60;78.20
254;DHT22;590;48.772;8.846;2024-01-11T10:54:41;-0.60;77.70
254;DHT22;590;48.772;8.846;2024-01-11T10:57:13;-0.50;77.80
254;DHT22;590;48.772;8.846;2024-01-11T10:59:41;-0.40;77.90
254;DHT22;590;48.772;8.846;2024-01-11T11:02:11;-0.40;77.00
254;DHT22;590;48.772;8.846;2024-01-11T11:04:42;-0.30;76.80
254;DHT22;590;48.772;8.846;2024-01-11T11:07:11;-0.30;76.20
254;DHT22;590;48.772;8.846;2024-01-11T11:09:41;-0.30;75.20
254;DHT22;590;48.772;8.846;2024-01-11T11:12:12;-0.30;75.10
254;DHT22;590;48.772;8.846;2024-01-11T11:14:46;-0.20;75.40
254;DHT22;590;48.772;8.846;2024-01-11T11:17:16;-0.20;75.20
254;DHT22;590;48.772;8.846;2024-01-11T11:19:44;-0.10;75.50
254;DHT22;590;48.772;8.846;2024-01-11T11:22:13;0.00;75.50
254;DHT22;590;48.772;8.846;2024-01-11T11:24:44;0.20;75.00
254;DHT22;590;48.772;8.846;2024-01-11T11:27:13;0.30;75.00
254;DHT22;590;48.772;8.846;2024-01-11T11:29:41;0.40;74.70
254;DHT22;590;48.772;8.846;2024-01-11T11:32:14;0.50;74.00
254;DHT22;590;48.772;8.846;2024-01-11T11:34:44;0.50;73.20
254;DHT22;590;48.772;8.846;2024-01-11T11:37:12;0.60;72.50
254;DHT22;590;48.772;8.846;2024-01-11T11:39:51;0.70;71.50
254;DHT22;590;48.772;8.846;2024-01-11T11:42:22;0.80;70.40
254;DHT22;590;48.772;8.846;2024-01-11T11:44:51;0.80;70.00
254;DHT22;590;48.772;8.846;2024-01-11T11:47:20;0.90;70.30
254;DHT22;590;48.772;8.846;2024-01-11T11:50:06;0.90;70.00
254;DHT22;590;48.772;8.846;2024-01-11T11:52:37;1.00;69.60
254;DHT22;590;48.772;8.846;2024-01-11T11:55:08;1.10;68.10
254;DHT22;590;48.772;8.846;2024-01-11T11:57:36;1.10;67.10
254;DHT22;590;48.772;8.846;2024-01-11T12:00:05;1.20;66.80
254;DHT22;590;48.772;8.846;2024-01-11T12:02:34;1.20;66.50
254;DHT22;590;48.772;8.846;2024-01-11T12:05:03;1.20;66.30
254;DHT22;590;48.772;8.846;2024-01-11T12:07:32;1.30;65.10
254;DHT22;590;48.772;8.846;2024-01-11T12:10:00;1.30;63.80
254;DHT22;590;48.772;8.846;2024-01-11T12:12:30;1.30;63.80
254;DHT22;590;48.772;8.846;2024-01-11T12:15:10;1.30;63.90
254;DHT22;590;48.772;8.846;2024-01-11T12:17:38;1.30;63.10
254;DHT22;590;48.772;8.846;2024-01-11T12:20:10;1.30;63.40
254;DHT22;590;48.772;8.846;2024-01-11T12:22:39;1.30;63.40
254;DHT22;590;48.772;8.846;2024-01-11T12:25:07;1.40;63.00
254;DHT22;590;48.772;8.846;2024-01-11T12:27:36;1.40;62.60
254;DHT22;590;48.772;8.846;2024-01-11T12:30:06;1.50;63.00
254;DHT22;590;48.772;8.846;2024-01-11T12:32:36;1.50;62.40
254;DHT22;590;48.772;8.846;2024-01-11T12:35:05;1.40;61.10
254;DHT22;590;48.772;8.846;2024-01-11T12:37:33;1.50;61.40
254;DHT22;590;48.772;8.846;2024-01-11T12:40:01;1.60;61.10
254;DHT22;590;48.772;8.846;2024-01-11T12:42:30;1.60;61.00
254;DHT22;590;48.772;8.846;2024-01-11T12:45:00;1.60;60.90
254;DHT22;590;48.772;8.846;2024-01-11T12:47:28;1.60;60.50
254;DHT22;590;48.772;8.846;2024-01-11T12:49:56;1.70;61.00
254;DHT22;590;48.772;8.846;2024-01-11T12:52:24;1.70;61.10
254;DHT22;590;48.772;8.846;2024-01-11T12:54:54;1.80;60.80
254;DHT22;590;48.772;8.846;2024-01-11T12:57:23;1.80;60.60
254;DHT22;590;48.772;8.846;2024-01-11T12:59:52;1.80;61.00
254;DHT22;590;48.772;8.846;2024-01-11T13:02:21;1.80;61.00
254;DHT22;590;48.772;8.846;2024-01-11T13:04:50;1.80;61.00
254;DHT22;590;48.772;8.846;2024-01-11T13:07:19;1.80;61.00
254;DHT22;590;48.772;8.846;2024-01-11T13:09:49;1.80;61.40
254;DHT22;590;48.772;8.846;2024-01-11T13:12:17;1.80;61.80
254;DHT22;590;48.772;8.846;2024-01-11T13:14:51;1.80;61.90
254;DHT22;590;48.772;8.846;2024-01-11T13:17:21;1.80;62.00
254;DHT22;590;48.772;8.846;2024-01-11T13:19:49;1.90;62.00
254;DHT22;590;48.772;8.846;2024-01-11T13:22:17;1.90;61.20
254;DHT22;590;48.772;8.846;2024-01-11T13:24:45;1.90;61.10
254;DHT22;590;48.772;8.846;2024-01-11T13:27:13;1.90;61.10
254;DHT22;590;48.772;8.846;2024-01-11T13:29:41;1.90;61.40
254;DHT22;590;48.772;8.846;2024-01-11T13:32:09;2.00;61.50
254;DHT22;590;48.772;8.846;2024-01-11T13:34:39;2.00;61.20
254;DHT22;590;48.772;8.846;2024-01-11T13:37:09;2.00;61.10
254;DHT22;590;48.772;8.846;2024-01-11T13:39:37;2.00;60.30
254;DHT22;590;48.772;8.846;2024-01-11T13:42:06;1.90;60.60
254;DHT22;590;48.772;8.846;2024-01-11T13:44:36;1.80;60.60
254;DHT22;590;48.772;8.846;2024-01-11T13:47:04;1.80;60.50
254;DHT22;590;48.772;8.846;2024-01-11T13:49:32;1.80;60.70
254;DHT22;590;48.772;8.846;2024-01-11T13:52:03;1.80;61.00
254;DHT22;590;48.772;8.846;2024-01-11T13:54:33;1.70;61.00
254;DHT22;590;48.772;8.846;2024-01-11T13:57:01;1.70;60.60
254;DHT22;590;48.772;8.846;2024-01-11T13:59:29;1.60;60.70
254;DHT22;590;48.772;8.846;2024-01-11T14:01:57;1.50;60.80
254;DHT22;590;48.772;8.846;2024-01-11T14:04:25;1.40;61.50
254;DHT22;590;48.772;8.846;2024-01-11T14:06:53;1.30;62.20
254;DHT22;590;48.772;8.846;2024-01-11T14:09:23;1.20;62.30
254;DHT22;590;48.772;8.846;2024-01-11T14:11:51;1.10;62.80
254;DHT22;590;48.772;8.846;2024-01-11T14:14:19;1.10;62.80
254;DHT22;590;48.772;8.846;2024-01-11T14:16:48;1.00;63.20
254;DHT22;590;48.772;8.846;2024-01-11T14:19:17;0.90;63.20
254;DHT22;590;48.772;8.846;2024-01-11T14:21:45;0.90;63.80
254;DHT22;590;48.772;8.846;2024-01-11T14:24:13;0.80;64.00
254;DHT22;590;48.772;8.846;2024-01-11T14:26:53;0.80;64.80
254;DHT22;590;48.772;8.846;2024-01-11T14:29:21;0.70;65.00
254;DHT22;590;48.772;8.846;2024-01-11T14:31:49;0.70;65.80
254;DHT22;590;48.772;8.846;2024-01-11T14:34:17;0.70;65.90
254;DHT22;590;48.772;8.846;2024-01-11T14:36:45;0.70;65.70
254;DHT22;590;48.772;8.846;2024-01-11T14:39:13;0.60;66.50
254;DHT22;590;48.772;8.846;2024-01-11T14:41:41;0.60;67.10
254;DHT22;590;48.772;8.846;2024-01-11T14:44:11;0.60;67.10
254;DHT22;590;48.772;8.846;2024-01-11T14:46:39;0.50;67.20
254;DHT22;590;48.772;8.846;2024-01-11T14:49:08;0.50;67.80
254;DHT22;590;48.772;8.846;2024-01-11T14:51:37;0.40;68.30
254;DHT22;590;48.772;8.846;2024-01-11T14:54:05;0.40;68.40
254;DHT22;590;48.772;8.846;2024-01-11T14:56:34;0.40;68.40
254;DHT22;590;48.772;8.846;2024-01-11T14:59:02;0.30;68.30
254;DHT22;590;48.772;8.846;2024-01-11T15:01:33;0.30;67.90
254;DHT22;590;48.772;8.846;2024-01-11T15:04:01;0.20;67.80
254;DHT22;590;48.772;8.846;2024-01-11T15:06:29;0.20;68.10
254;DHT22;590;48.772;8.846;2024-01-11T15:08:57;0.20;67.90
254;DHT22;590;48.772;8.846;2024-01-11T15:11:26;0.20;67.80
254;DHT22;590;48.772;8.846;2024-01-11T15:13:54;0.10;67.90
254;DHT22;590;48.772;8.846;2024-01-11T15:16:22;0.10;68.00
254;DHT22;590;48.772;8.846;2024-01-11T15:18:51;0.10;67.90
254;DHT22;590;48.772;8.846;2024-01-11T15:21:20;0.10;68.00
254;DHT22;590;48.772;8.846;2024-01-11T15:23:48;0.00;67.70
254;DHT22;590;48.772;8.846;2024-01-11T15:26:16;0.00;68.10
254;DHT22;590;48.772;8.846;2024-01-11T15:28:44;0.00;68.60
254;DHT22;590;48.772;8.846;2024-01-11T15:31:13;-0.10;68.90
254;DHT22;590;48.772;8.846;2024-01-11T15:33:41;-0.10;69.40
254;DHT22;590;48.772;8.846;2024-01-11T15:36:10;-0.20;69.60
254;DHT22;590;48.772;8.846;2024-01-11T15:38:39;-0.20;69.90
254;DHT22;590;48.772;8.846;2024-01-11T15:41:07;-0.20;70.20
254;DHT22;590;48.772;8.846;2024-01-11T15:43:35;-0.20;70.10
254;DHT22;590;48.772;8.846;2024-01-11T15:46:03;-0.30;70.20
254;DHT22;590;48.772;8.846;2024-01-11T15:48:31;-0.30;69.90
254;DHT22;590;48.772;8.846;2024-01-11T15:51:00;-0.40;69.80
254;DHT22;590;48.772;8.846;2024-01-11T15:53:32;-0.40;70.00
254;DHT22;590;48.772;8.846;2024-01-11T15:56:00;-0.40;70.40
254;DHT22;590;48.772;8.846;2024-01-11T15:58:28;-0.40;71.20
254;DHT22;590;48.772;8.846;2024-01-11T16:00:56;-0.50;71.90
254;DHT22;590;48.772;8.846;2024-01-11T16:03:24;-0.50;72.10
254;DHT22;590;48.772;8.846;2024-01-11T16:05:53;-0.60;72.00
254;DHT22;590;48.772;8.846;2024-01-11T16:08:21;-0.60;71.60
254;DHT22;590;48.772;8.846;2024-01-11T16:10:51;-0.70;71.70
254;DHT22;590;48.772;8.846;2024-01-11T16:13:19;-0.70;71.70
254;DHT22;590;48.772;8.846;2024-01-11T16:15:47;-0.80;71.60
254;DHT22;590;48.772;8.846;2024-01-11T16:18:15;-0.80;71.50
254;DHT22;590;48.772;8.846;2024-01-11T16:20:44;-0.80;72.00
254;DHT22;590;48.772;8.846;2024-01-11T16:23:13;-0.90;72.10
254;DHT22;590;48.772;8.846;2024-01-11T16:25:41;-1.00;72.70
254;DHT22;590;48.772;8.846;2024-01-11T16:28:10;-1.00;73.20
254;DHT22;590;48.772;8.846;2024-01-11T16:30:38;-1.10;73.20
254;DHT22;590;48.772;8.846;2024-01-11T16:33:06;-1.20;73.70
254;DHT22;590;48.772;8.846;2024-01-11T16:35:36;-1.20;73.70
254;DHT22;590;48.772;8.846;2024-01-11T16:38:18;-1.30;74.50
254;DHT22;590;48.772;8.846;2024-01-11T16:40:46;-1.30;74.80
254;DHT22;590;48.772;8.846;2024-01-11T16:43:16;-1.40;74.60
254;DHT22;590;48.772;8.846;2024-01-11T16:45:45;-1.40;74.60
254;DHT22;590;48.772;8.846;2024-01-11T16:48:13;-1.50;74.70
254;DHT22;590;48.772;8.846;2024-01-11T16:50:44;-1.50;74.60